Fish Creek, Wisconsin
Current Conditions -  °F | °C
As of 1:35 AM on Sunday 23 Nov 2014 (Local Time) from KMNM Reporting Station
Overcast Overcast  
Wind Chill: 31°   Ceiling: 200
Heat Index: 37°   Visibility: 0.25mi
Dew Point: 37°   Wind: 8mph
Humidity: 100%   Direction: 160°SSE
Pressure: 29.69"   Gusts: NA
Location:  45.13°N, 87.25°W
Report Text: KMNM 230735Z AUTO 16007KT 1/4SM OVC002 03/03 A2969 RMK AO1
Loading
Personal Weather Stations






























Interactive Weather Map New forecast layout! Learn more

10-Day Weather Forecast

Advertisements
Track Severe Weather on mobile